Time;durP1;ratioP1;P1;durP2;ratioP2;P2;SDS_P1;SDS_P2;PMS_P1;PMS_P2;Temp;Humidity;BMP_temperature;BMP_pressure;BME280_temperature;BME280_humidity;BME280_pressure;Samples;Min_cycle;Max_cycle;Signal;HPM_P1;HPM_P2
2022/12/20 00:00:10;;;;;;;;;;;;;;;18.44;62.08;100072.59;2079105;28;19920;-73
2022/12/20 00:01:12;;;;;;;;;;;;;;;18.44;62.33;100078.84;2080848;28;19947;-73
2022/12/20 00:02:13;;;;;;;;;;;;;;;18.42;61.85;100080.84;2078598;28;19936;-73
2022/12/20 00:03:14;;;;;;;;;;;;;;;18.41;62.17;100071.06;2079934;28;20613;-74
2022/12/20 00:04:15;;;;;;;;;;;;;;;18.41;61.99;100068.41;2080172;28;19971;-74
2022/12/20 00:05:16;;;;;;;;;;;;;;;18.40;62.26;100069.41;2081031;28;20275;-73
2022/12/20 00:06:18;;;;;;;;;;;;;;;18.39;62.13;100070.44;2083230;28;19990;-73
2022/12/20 00:07:18;;;;;;;;;;;;;;;18.39;62.42;100073.13;2081239;28;19924;-74
2022/12/20 00:08:20;;;;;;;;;;;;;;;18.38;62.04;100070.59;2080038;28;20007;-74
2022/12/20 00:09:20;;;;;;;;;;;;;;;18.38;62.02;100071.41;2079619;28;19932;-74
2022/12/20 00:10:22;;;;;;;;;;;;;;;18.38;62.24;100065.22;2081083;28;20344;-74
2022/12/20 00:11:23;;;;;;;;;;;;;;;18.38;62.04;100067.91;2080303;28;19924;-74
2022/12/20 00:12:24;;;;;;;;;;;;;;;18.36;62.24;100065.41;2072700;28;19929;-74
2022/12/20 00:13:25;;;;;;;;;;;;;;;18.34;62.17;100067.41;2079965;28;19924;-73
2022/12/20 00:14:26;;;;;;;;;;;;;;;18.35;62.29;100071.75;2079625;28;20276;-74
2022/12/20 00:15:30;;;;;;;;;;;;;;;18.35;62.38;100074.44;2079968;28;19929;-74
2022/12/20 00:16:31;;;;;;;;;;;;;;;18.33;62.07;100065.72;2077954;28;20015;-74
2022/12/20 00:17:32;;;;;;;;;;;;;;;18.32;62.23;100064.03;2080270;28;21875;-74
2022/12/20 00:18:33;;;;;;;;;;;;;;;18.33;62.47;100065.72;2080770;28;19925;-73
2022/12/20 00:19:34;;;;;;;;;;;;;;;18.31;62.18;100065.88;2077502;28;19947;-73
2022/12/20 00:20:35;;;;;;;;;;;;;;;18.31;62.17;100065.06;2080652;28;19931;-73
2022/12/20 00:21:36;;;;;;;;;;;;;;;18.27;62.45;100064.53;2077456;28;19930;-74
2022/12/20 00:22:38;;;;;;;;;;;;;;;18.29;62.40;100064.38;2079928;28;20341;-74
2022/12/20 00:23:39;;;;;;;;;;;;;;;18.28;62.38;100065.38;2079109;28;21430;-74
2022/12/20 00:24:41;;;;;;;;;;;;;;;18.29;62.38;100064.38;2081729;28;19929;-73
2022/12/20 00:25:41;;;;;;;;;;;;;;;18.29;62.23;100059.00;2079460;28;19977;-74
2022/12/20 00:26:43;;;;;;;;;;;;;;;18.26;62.39;100067.41;2082419;28;19937;-74
2022/12/20 00:27:43;;;;;;;;;;;;;;;18.26;62.42;100059.34;2082069;28;20047;-73
2022/12/20 00:28:45;;;;;;;;;;;;;;;18.24;62.13;100064.84;2080874;28;19924;-74
2022/12/20 00:29:45;;;;;;;;;;;;;;;18.24;62.35;100064.03;2078236;28;20347;-73
2022/12/20 00:30:53;;;;;;;;;;;;;;;18.26;62.40;100062.03;2080645;28;19936;-74
2022/12/20 00:31:53;;;;;;;;;;;;;;;18.23;62.19;100065.88;2075474;28;22269;-74
2022/12/20 00:32:55;;;;;;;;;;;;;;;18.23;62.23;100060.50;2079175;28;19978;-74
2022/12/20 00:33:56;;;;;;;;;;;;;;;18.23;62.18;100062.34;2075523;28;20360;-74
2022/12/20 00:34:58;;;;;;;;;;;;;;;18.20;62.38;100055.47;2077252;28;19920;-74
2022/12/20 00:35:58;;;;;;;;;;;;;;;18.20;62.40;100063.53;2080562;28;19925;-74
2022/12/20 00:37:00;;;;;;;;;;;;;;;18.19;62.17;100061.84;2076959;28;20283;-74
2022/12/20 00:38:00;;;;;;;;;;;;;;;18.18;62.30;100062.84;2078710;28;19938;-73
2022/12/20 00:39:02;;;;;;;;;;;;;;;18.20;62.55;100057.31;2079494;28;20480;-74
2022/12/20 00:40:03;;;;;;;;;;;;;;;18.17;62.33;100063.03;2077740;28;19932;-74
2022/12/20 00:41:05;;;;;;;;;;;;;;;18.14;62.55;100069.56;2080336;28;19920;-74
2022/12/20 00:42:06;;;;;;;;;;;;;;;18.15;62.25;100063.19;2079415;28;19925;-74
2022/12/20 00:43:07;;;;;;;;;;;;;;;18.13;62.41;100067.03;2072433;28;19931;-74
2022/12/20 00:44:08;;;;;;;;;;;;;;;18.14;62.37;100074.09;2080542;28;19929;-73
2022/12/20 00:45:10;;;;;;;;;;;;;;;18.11;62.60;100058.28;2080217;28;19950;-74
2022/12/20 00:46:13;;;;;;;;;;;;;;;18.11;62.50;100067.22;2081179;28;19974;-74
2022/12/20 00:47:14;;;;;;;;;;;;;;;18.09;62.65;100066.53;2079945;28;19964;-73
2022/12/20 00:48:15;;;;;;;;;;;;;;;18.09;62.35;100064.69;2080864;28;19920;-74
2022/12/20 00:49:16;;;;;;;;;;;;;;;18.11;62.34;100066.34;2078773;28;19932;-73
2022/12/20 00:50:17;;;;;;;;;;;;;;;18.08;62.51;100054.97;2076259;28;19963;-74
2022/12/20 00:51:19;;;;;;;;;;;;;;;18.07;62.57;100058.63;2079715;28;19924;-73
2022/12/20 00:52:19;;;;;;;;;;;;;;;18.05;62.42;100060.66;2079675;28;19929;-73
2022/12/20 00:53:21;;;;;;;;;;;;;;;18.05;62.52;100062.47;2079455;28;19924;-73
2022/12/20 00:54:22;;;;;;;;;;;;;;;18.06;62.63;100069.56;2080809;28;20739;-74
2022/12/20 00:55:23;;;;;;;;;;;;;;;18.03;62.65;100061.84;2077779;28;19929;-74
2022/12/20 00:56:24;;;;;;;;;;;;;;;18.03;62.65;100064.50;2080439;28;19928;-73
2022/12/20 00:57:25;;;;;;;;;;;;;;;18.00;62.68;100068.38;2080894;28;20019;-73
2022/12/20 00:58:26;;;;;;;;;;;;;;;18.00;62.43;100063.00;2078630;28;20553;-73
2022/12/20 00:59:27;;;;;;;;;;;;;;;18.00;62.59;100063.00;2072464;28;20053;-73
2022/12/20 01:00:28;;;;;;;;;;;;;;;17.99;62.65;100065.84;2078070;28;19955;-73
2022/12/20 01:01:33;;;;;;;;;;;;;;;18.01;62.75;100070.03;2079659;28;19920;-74
2022/12/20 01:02:33;;;;;;;;;;;;;;;17.98;62.28;100059.63;2080169;28;19932;-73
2022/12/20 01:03:35;;;;;;;;;;;;;;;17.97;62.75;100063.34;2080469;28;19928;-73
2022/12/20 01:04:35;;;;;;;;;;;;;;;17.97;62.69;100060.66;2079536;28;20382;-74
2022/12/20 01:05:38;;;;;;;;;;;;;;;17.98;62.45;100062.31;2078785;28;19925;-74
2022/12/20 01:06:38;;;;;;;;;;;;;;;17.97;62.69;100060.66;2078203;28;19925;-74
2022/12/20 01:07:40;;;;;;;;;;;;;;;17.96;62.68;100060.81;2079379;28;20587;-73
2022/12/20 01:08:40;;;;;;;;;;;;;;;17.95;62.52;100059.13;2081049;28;20026;-73
2022/12/20 01:09:42;;;;;;;;;;;;;;;17.94;62.79;100052.06;2079085;28;21995;-73
2022/12/20 01:10:42;;;;;;;;;;;;;;;17.94;62.53;100054.75;2080426;28;19936;-73
2022/12/20 01:11:44;;;;;;;;;;;;;;;17.93;62.57;100059.28;2082594;28;19951;-74
2022/12/20 01:12:44;;;;;;;;;;;;;;;17.93;62.68;100058.44;2079657;28;20759;-74
2022/12/20 01:13:47;;;;;;;;;;;;;;;17.92;62.51;100060.28;2076309;28;19931;-74
2022/12/20 01:14:48;;;;;;;;;;;;;;;17.91;62.55;100058.59;2078618;28;19921;-73
2022/12/20 01:15:49;;;;;;;;;;;;;;;17.91;62.64;100055.06;2077843;28;19960;-73
2022/12/20 01:16:51;;;;;;;;;;;;;;;17.89;62.48;100052.56;2080396;28;19920;-73
2022/12/20 01:17:53;;;;;;;;;;;;;;;17.89;62.45;100057.09;2080418;28;20557;-74
2022/12/20 01:18:53;;;;;;;;;;;;;;;17.86;62.71;100059.09;2079498;28;20309;-73
2022/12/20 01:19:55;;;;;;;;;;;;;;;17.86;62.69;100053.75;2079238;28;19924;-73
2022/12/20 01:20:59;;;;;;;;;;;;;;;17.88;62.81;100053.56;2080772;28;19924;-73
2022/12/20 01:22:01;;;;;;;;;;;;;;;17.85;62.77;100057.41;2079690;28;20027;-73
2022/12/20 01:23:01;;;;;;;;;;;;;;;17.86;62.69;100052.91;2080919;28;20000;-73
2022/12/20 01:24:03;;;;;;;;;;;;;;;17.84;62.80;100053.06;2079811;28;20568;-73
2022/12/20 01:25:05;;;;;;;;;;;;;;;17.84;62.85;100052.22;2080816;28;19928;-73
2022/12/20 01:26:08;;;;;;;;;;;;;;;17.83;62.82;100051.38;2079339;28;19939;-73
2022/12/20 01:27:08;;;;;;;;;;;;;;;17.84;62.82;100041.50;2080073;28;20451;-73
2022/12/20 01:28:10;;;;;;;;;;;;;;;17.83;62.72;100050.56;2080942;28;19920;-73
2022/12/20 01:29:12;;;;;;;;;;;;;;;17.81;62.84;100049.88;2079896;28;20049;-74
2022/12/20 01:30:13;;;;;;;;;;;;;;;17.80;62.65;100053.53;2078061;28;19932;-73
2022/12/20 01:31:16;;;;;;;;;;;;;;;17.78;62.65;100044.81;2083616;28;19929;-74
2022/12/20 01:32:19;;;;;;;;;;;;;;;17.77;62.80;100049.31;2083279;28;20393;-73
2022/12/20 01:33:19;;;;;;;;;;;;;;;17.75;62.86;100043.28;2084105;28;19927;-74
2022/12/20 01:34:21;;;;;;;;;;;;;;;17.75;62.87;100043.28;2084695;28;20156;-73
2022/12/20 01:35:21;;;;;;;;;;;;;;;17.74;62.66;100041.59;2083610;28;19920;-74
2022/12/20 01:36:24;;;;;;;;;;;;;;;17.73;62.91;100037.22;2084391;28;19925;-74
2022/12/20 01:37:25;;;;;;;;;;;;;;;17.74;62.61;100038.91;2073985;28;20439;-74
2022/12/20 01:38:27;;;;;;;;;;;;;;;17.73;62.88;100037.22;2079528;28;19929;-73
2022/12/20 01:39:27;;;;;;;;;;;;;;;17.72;62.81;100037.38;2081665;28;19928;-73
2022/12/20 01:40:29;;;;;;;;;;;;;;;17.71;62.75;100036.53;2082122;28;19939;-74
2022/12/20 01:41:30;;;;;;;;;;;;;;;17.69;62.85;100035.88;2083624;28;19924;-73
2022/12/20 01:42:31;;;;;;;;;;;;;;;17.69;62.97;100035.03;2082204;28;19921;-74
2022/12/20 01:43:44;;;;;;;;;;;;;;;17.70;62.89;100042.09;2079429;28;20027;-74
2022/12/20 01:44:56;;;;;;;;;;;;;;;17.67;62.87;100037.06;2082350;28;20324;-73
2022/12/20 01:45:57;;;;;;;;;;;;;;;17.65;62.91;100043.41;2081489;28;19933;-73
2022/12/20 01:46:58;;;;;;;;;;;;;;;17.65;62.91;100038.03;2081238;28;20036;-74
2022/12/20 01:48:00;;;;;;;;;;;;;;;17.63;63.02;100034.69;2081511;28;19981;-73
2022/12/20 01:49:05;;;;;;;;;;;;;;;17.63;63.06;100034.69;2082672;28;19933;-74
2022/12/20 01:50:07;;;;;;;;;;;;;;;17.61;63.11;100030.50;2082457;28;20016;-74
2022/12/20 01:51:09;;;;;;;;;;;;;;;17.62;62.96;100033.00;2083274;28;20656;-73
2022/12/20 01:52:12;;;;;;;;;;;;;;;17.60;62.90;100039.53;2080975;28;19986;-73
2022/12/20 01:53:14;;;;;;;;;;;;;;;17.60;62.96;100031.47;2081878;28;19924;-73
2022/12/20 01:54:18;;;;;;;;;;;;;;;17.60;63.05;100020.75;2081110;28;20396;-74
2022/12/20 01:55:21;;;;;;;;;;;;;;;17.61;63.10;100030.50;2081243;28;19924;-73
2022/12/20 01:56:21;;;;;;;;;;;;;;;17.58;63.03;100028.97;2081802;28;20448;-73
2022/12/20 01:57:25;;;;;;;;;;;;;;;17.57;63.06;100027.28;2081669;28;19927;-73
2022/12/20 01:58:26;;;;;;;;;;;;;;;17.56;62.98;100022.09;2080496;28;20389;-74
2022/12/20 01:59:28;;;;;;;;;;;;;;;17.57;62.92;100018.41;2080784;28;19921;-74
2022/12/20 02:00:29;;;;;;;;;;;;;;;17.54;63.02;100024.94;2079837;28;19920;-74
2022/12/20 02:01:31;;;;;;;;;;;;;;;17.57;62.85;100029.13;2081617;28;19921;-74
2022/12/20 02:02:31;;;;;;;;;;;;;;;17.53;62.96;100025.94;2080913;28;19924;-73
2022/12/20 02:03:34;;;;;;;;;;;;;;;17.52;63.06;100021.56;2081251;28;19924;-74
2022/12/20 02:04:35;;;;;;;;;;;;;;;17.53;63.18;100025.94;2080030;28;19947;-73
2022/12/20 02:05:37;;;;;;;;;;;;;;;17.51;62.94;100016.38;2081551;28;19939;-74
2022/12/20 02:06:38;;;;;;;;;;;;;;;17.51;62.99;100011.00;2080489;28;20019;-74
2022/12/20 02:07:40;;;;;;;;;;;;;;;17.49;63.16;100013.84;2081484;28;19946;-74
2022/12/20 02:08:42;;;;;;;;;;;;;;;17.50;62.96;100012.84;2078048;28;20007;-74
2022/12/20 02:09:43;;;;;;;;;;;;;;;17.49;62.96;100016.53;2080940;28;19943;-74
2022/12/20 02:10:53;;;;;;;;;;;;;;;17.50;62.99;100014.72;2081046;28;20302;-74
2022/12/20 02:12:02;;;;;;;;;;;;;;;17.49;63.08;100010.31;2081164;28;19928;-74
2022/12/20 02:13:06;;;;;;;;;;;;;;;17.49;63.17;100013.84;2080919;28;19931;-74
2022/12/20 02:14:12;;;;;;;;;;;;;;;17.46;63.17;100011.50;2081196;28;20035;-73
2022/12/20 02:15:22;;;;;;;;;;;;;;;17.46;63.22;100011.50;2082318;28;19931;-74
2022/12/20 02:16:26;;;;;;;;;;;;;;;17.47;63.00;100017.69;2081904;28;20023;-74
2022/12/20 02:17:34;;;;;;;;;;;;;;;17.44;63.11;100002.78;2080024;28;19920;-74
2022/12/20 02:18:41;;;;;;;;;;;;;;;17.43;63.03;100001.09;2080292;28;19928;-74
2022/12/20 02:19:55;;;;;;;;;;;;;;;17.41;63.16;100003.09;2081032;28;19924;-74
2022/12/20 02:21:06;;;;;;;;;;;;;;;17.40;63.15;100006.78;2082113;28;20393;-74
2022/12/20 02:22:14;;;;;;;;;;;;;;;17.39;63.33;100005.13;2080447;28;19963;-74
2022/12/20 02:23:35;;;;;;;;;;;;;;;17.39;63.19;100002.44;2079932;28;19921;-74
2022/12/20 02:24:57;;;;;;;;;;;;;;;17.39;63.05;100005.13;2079367;28;19924;-73
2022/12/20 02:26:03;;;;;;;;;;;;;;;17.40;63.10;100006.78;2068994;28;19921;-73
2022/12/20 02:27:31;;;;;;;;;;;;;;;17.39;63.19;100005.13;2080556;28;19990;-74
2022/12/20 02:28:40;;;;;;;;;;;;;;;17.36;63.20;100000.06;2080858;28;19928;-74
2022/12/20 02:29:55;;;;;;;;;;;;;;;17.35;63.20;99999.22;2078675;28;19931;-73
2022/12/20 02:30:57;;;;;;;;;;;;;;;17.34;63.28;100002.06;2081004;28;19951;-74
2022/12/20 02:32:01;;;;;;;;;;;;;;;17.32;63.43;99998.69;2078302;28;19936;-74
2022/12/20 02:33:03;;;;;;;;;;;;;;;17.35;63.22;100004.56;2080711;28;20449;-73
2022/12/20 02:34:04;;;;;;;;;;;;;;;17.32;63.34;100004.91;2079503;28;19958;-74
2022/12/20 02:35:07;;;;;;;;;;;;;;;17.33;63.15;99995.03;2081200;28;20492;-74
2022/12/20 02:36:08;;;;;;;;;;;;;;;17.32;63.29;100002.22;2080292;28;19931;-74
2022/12/20 02:37:09;;;;;;;;;;;;;;;17.30;63.39;99998.00;2081024;28;20386;-74
2022/12/20 02:38:24;;;;;;;;;;;;;;;17.30;63.30;99996.19;2081659;28;19921;-74
2022/12/20 02:39:27;;;;;;;;;;;;;;;17.29;63.38;99996.34;2081005;28;19929;-74
2022/12/20 02:40:29;;;;;;;;;;;;;;;17.28;63.37;100003.56;2080243;28;20015;-74
2022/12/20 02:41:34;;;;;;;;;;;;;;;17.27;63.34;100007.22;2079749;28;19936;-74
2022/12/20 02:42:35;;;;;;;;;;;;;;;17.26;63.34;99997.50;2078872;28;19935;-73
2022/12/20 02:45:16;;;;;;;;;;;;;;;17.25;63.35;99995.00;2082206;28;20496;-74
2022/12/20 02:46:18;;;;;;;;;;;;;;;17.26;63.22;99997.50;2080342;28;19921;-74
2022/12/20 02:47:24;;;;;;;;;;;;;;;17.24;63.20;99996.00;2081165;28;19925;-73
2022/12/20 02:48:29;;;;;;;;;;;;;;;17.24;63.34;99987.94;2080273;28;20859;-73
2022/12/20 02:49:31;;;;;;;;;;;;;;;17.25;63.47;99986.97;2080606;28;20505;-74
2022/12/20 02:50:35;;;;;;;;;;;;;;;17.24;63.24;99990.63;2079488;28;20323;-73
2022/12/20 02:51:36;;;;;;;;;;;;;;;17.23;63.40;99988.97;2076531;28;19928;-74
2022/12/20 02:52:38;;;;;;;;;;;;;;;17.19;63.41;99988.44;2080887;28;20350;-74
2022/12/20 02:53:39;;;;;;;;;;;;;;;17.18;63.53;99987.59;2080390;28;19979;-73
2022/12/20 02:54:41;;;;;;;;;;;;;;;17.18;63.53;99990.25;2080077;28;20022;-74
2022/12/20 02:55:45;;;;;;;;;;;;;;;17.17;63.52;99987.75;2080426;28;19921;-74
2022/12/20 02:56:50;;;;;;;;;;;;;;;17.17;63.48;99998.50;2080884;28;19928;-74
2022/12/20 02:57:55;;;;;;;;;;;;;;;17.14;63.58;99986.25;2079345;28;19925;-74
2022/12/20 02:58:59;;;;;;;;;;;;;;;17.14;63.38;99991.59;2079725;28;19931;-73
2022/12/20 03:00:03;;;;;;;;;;;;;;;17.14;63.34;99988.91;2076534;28;19927;-74
2022/12/20 03:01:08;;;;;;;;;;;;;;;17.15;63.40;99993.28;2080361;28;19928;-74
2022/12/20 03:02:09;;;;;;;;;;;;;;;17.13;63.45;99991.75;2079602;28;20262;-74
2022/12/20 03:03:23;;;;;;;;;;;;;;;17.12;63.43;99988.22;2076818;28;19965;-74
2022/12/20 03:04:25;;;;;;;;;;;;;;;17.12;63.61;99979.34;2080381;28;22386;-74
2022/12/20 03:05:27;;;;;;;;;;;;;;;17.10;63.45;99984.88;2080078;28;19928;-74
2022/12/20 03:06:29;;;;;;;;;;;;;;;17.08;63.62;99981.53;2080905;28;21603;-74
2022/12/20 03:07:32;;;;;;;;;;;;;;;17.09;63.62;99988.56;2078223;28;21882;-74
2022/12/20 03:08:34;;;;;;;;;;;;;;;17.12;63.43;99987.41;2080632;28;19944;-74
2022/12/20 03:09:36;;;;;;;;;;;;;;;17.11;63.67;99985.72;2077016;28;20059;-74
2022/12/20 03:10:38;;;;;;;;;;;;;;;17.10;63.46;99984.88;2080507;28;19940;-74
2022/12/20 03:11:38;;;;;;;;;;;;;;;17.09;63.37;99985.03;2080736;28;19924;-74
2022/12/20 03:12:40;;;;;;;;;;;;;;;17.08;63.38;99981.53;2078120;28;20003;-74
2022/12/20 03:13:41;;;;;;;;;;;;;;;17.08;63.41;99978.84;2081439;28;19933;-74
2022/12/20 03:14:42;;;;;;;;;;;;;;;17.10;63.53;99982.19;2079517;28;19932;-74
2022/12/20 03:15:44;;;;;;;;;;;;;;;17.08;63.61;99981.53;2080902;28;19943;-73
2022/12/20 03:16:46;;;;;;;;;;;;;;;17.07;63.49;99979.00;2079716;28;20012;-74
2022/12/20 03:17:46;;;;;;;;;;;;;;;17.05;63.54;99973.81;2080980;28;19921;-74
2022/12/20 03:18:48;;;;;;;;;;;;;;;17.04;63.48;99982.00;2079589;28;20674;-74
2022/12/20 03:19:48;;;;;;;;;;;;;;;17.02;63.56;99979.50;2078100;28;20474;-74
2022/12/20 03:20:50;;;;;;;;;;;;;;;17.04;63.54;99980.16;2082045;28;19932;-74
2022/12/20 03:21:50;;;;;;;;;;;;;;;17.04;63.41;99973.97;2080181;28;19932;-73
2022/12/20 03:22:52;;;;;;;;;;;;;;;17.03;63.43;99983.00;2080106;28;19924;-74
2022/12/20 03:23:52;;;;;;;;;;;;;;;17.01;63.55;99980.47;2079867;28;19977;-74
2022/12/20 03:24:54;;;;;;;;;;;;;;;17.00;63.64;99978.81;2080357;28;20016;-74
2022/12/20 03:25:55;;;;;;;;;;;;;;;16.99;63.76;99971.75;2079721;28;19928;-74
2022/12/20 03:26:56;;;;;;;;;;;;;;;17.00;63.60;99973.44;2080020;28;19921;-74
2022/12/20 03:27:57;;;;;;;;;;;;;;;16.99;63.50;99966.38;2080015;28;20400;-73
2022/12/20 03:28:58;;;;;;;;;;;;;;;16.97;63.69;99968.41;2078281;28;19924;-74
2022/12/20 03:29:59;;;;;;;;;;;;;;;16.98;63.69;99967.41;2079404;28;20875;-74
2022/12/20 03:31:02;;;;;;;;;;;;;;;16.98;63.57;99970.09;2079983;28;19924;-74
2022/12/20 03:32:03;;;;;;;;;;;;;;;17.00;63.50;99967.25;2080076;28;20932;-74
2022/12/20 03:33:04;;;;;;;;;;;;;;;16.97;63.67;99969.25;2077249;28;19931;-74
2022/12/20 03:34:05;;;;;;;;;;;;;;;16.95;63.71;99968.56;2079818;28;19925;-73
2022/12/20 03:35:07;;;;;;;;;;;;;;;16.94;63.70;99966.06;2080476;28;19974;-74
2022/12/20 03:36:09;;;;;;;;;;;;;;;16.95;63.73;99965.03;2080938;28;19921;-73
2022/12/20 03:37:09;;;;;;;;;;;;;;;16.96;63.52;99961.34;2079671;28;19975;-74
2022/12/20 03:38:11;;;;;;;;;;;;;;;16.95;63.54;99965.03;2079558;28;20563;-74
2022/12/20 03:39:11;;;;;;;;;;;;;;;16.94;63.56;99974.09;2079354;28;19932;-74
2022/12/20 03:40:13;;;;;;;;;;;;;;;16.93;63.81;99965.19;2068000;28;19975;-74
2022/12/20 03:41:13;;;;;;;;;;;;;;;16.93;63.59;99962.50;2080585;28;19982;-74
2022/12/20 03:42:15;;;;;;;;;;;;;;;16.92;63.73;99965.38;2080538;28;19929;-74
2022/12/20 03:43:15;;;;;;;;;;;;;;;16.90;63.88;99967.34;2080564;28;20695;-73
2022/12/20 03:44:17;;;;;;;;;;;;;;;16.88;63.69;99959.50;2079843;28;19924;-73
2022/12/20 03:45:17;;;;;;;;;;;;;;;16.88;63.78;99958.63;2078358;28;20593;-73
2022/12/20 03:46:20;;;;;;;;;;;;;;;16.88;63.74;99966.66;2081575;28;19925;-74
2022/12/20 03:47:21;;;;;;;;;;;;;;;16.87;63.76;99960.47;2080263;28;19929;-74
2022/12/20 03:48:22;;;;;;;;;;;;;;;16.87;63.66;99959.66;2078638;28;19924;-73
2022/12/20 03:49:23;;;;;;;;;;;;;;;16.88;63.79;99964.00;2078894;28;19945;-74
2022/12/20 03:50:24;;;;;;;;;;;;;;;16.88;63.72;99966.66;2078576;28;19938;-74
2022/12/20 03:51:25;;;;;;;;;;;;;;;16.86;63.75;99964.16;2079594;28;19960;-73
2022/12/20 03:52:26;;;;;;;;;;;;;;;16.85;63.69;99962.47;2080022;28;20273;-74
2022/12/20 03:53:27;;;;;;;;;;;;;;;16.85;63.87;99964.31;2079928;28;20293;-74
2022/12/20 03:54:28;;;;;;;;;;;;;;;16.85;63.71;99962.47;2080206;28;20010;-74
2022/12/20 03:55:29;;;;;;;;;;;;;;;16.84;63.82;99968.00;2079850;28;20354;-74
2022/12/20 03:56:30;;;;;;;;;;;;;;;16.84;63.76;99962.66;2078706;28;19993;-73
2022/12/20 03:57:31;;;;;;;;;;;;;;;16.81;63.82;99958.44;2080094;28;19929;-74
2022/12/20 03:58:33;;;;;;;;;;;;;;;16.81;63.81;99957.59;2080210;28;19924;-74
2022/12/20 03:59:34;;;;;;;;;;;;;;;16.81;63.68;99954.94;2079030;28;20385;-74
2022/12/20 04:00:35;;;;;;;;;;;;;;;16.82;63.82;99961.97;2079672;28;20455;-73
2022/12/20 04:01:37;;;;;;;;;;;;;;;16.83;63.81;99969.00;2078725;28;20016;-74
2022/12/20 04:02:39;;;;;;;;;;;;;;;16.80;63.63;99964.81;2079751;28;20420;-74
2022/12/20 04:03:39;;;;;;;;;;;;;;;16.81;63.74;99968.31;2079448;28;19924;-74
2022/12/20 04:04:41;;;;;;;;;;;;;;;16.83;63.75;99960.97;2080012;28;19929;-74
2022/12/20 04:05:41;;;;;;;;;;;;;;;16.79;63.76;99967.63;2079469;28;19925;-74
2022/12/20 04:06:43;;;;;;;;;;;;;;;16.80;63.72;99961.28;2080301;28;19929;-74
2022/12/20 04:07:44;;;;;;;;;;;;;;;16.78;63.94;99961.44;2079693;28;19925;-74
2022/12/20 04:08:45;;;;;;;;;;;;;;;16.79;63.89;99965.78;2080006;28;19934;-74
2022/12/20 04:09:46;;;;;;;;;;;;;;;16.78;63.73;99957.94;2076288;28;19927;-74
2022/12/20 04:12:07;;;;;;;;;;;;;;;16.76;63.79;99955.38;2079331;28;20027;-74
2022/12/20 04:13:07;;;;;;;;;;;;;;;16.77;63.82;99961.59;2078757;28;19928;-74
2022/12/20 04:14:09;;;;;;;;;;;;;;;16.76;63.92;99952.69;2079641;28;19983;-73
2022/12/20 04:15:09;;;;;;;;;;;;;;;16.77;63.82;99956.22;2081081;28;19924;-74
2022/12/20 04:16:11;;;;;;;;;;;;;;;16.74;63.90;99947.50;2080364;28;20289;-74
2022/12/20 04:17:14;;;;;;;;;;;;;;;16.74;63.84;99952.88;2080760;28;19936;-74
2022/12/20 04:18:14;;;;;;;;;;;;;;;16.74;63.82;99946.63;2080191;28;19937;-74
2022/12/20 04:19:16;;;;;;;;;;;;;;;16.73;63.82;99944.97;2079731;28;19929;-74
2022/12/20 04:20:19;;;;;;;;;;;;;;;16.74;63.83;99941.28;2077943;28;20336;-73
2022/12/20 04:21:22;;;;;;;;;;;;;;;16.72;63.89;99941.47;2075739;28;19928;-74
2022/12/20 04:22:22;;;;;;;;;;;;;;;16.72;63.90;99943.31;2077468;28;20290;-73
2022/12/20 04:23:24;;;;;;;;;;;;;;;16.69;63.80;99941.78;2079509;28;20060;-74
2022/12/20 04:24:25;;;;;;;;;;;;;;;16.70;63.93;99950.66;2080830;28;19939;-74
2022/12/20 04:25:26;;;;;;;;;;;;;;;16.72;63.88;99952.16;2081072;28;19933;-74
2022/12/20 04:26:27;;;;;;;;;;;;;;;16.70;63.77;99946.13;2082118;28;19921;-74
2022/12/20 04:27:28;;;;;;;;;;;;;;;16.71;63.91;99952.31;2082735;28;19971;-74
2022/12/20 04:28:29;;;;;;;;;;;;;;;16.72;63.95;99943.31;2080736;28;19929;-73
2022/12/20 04:29:30;;;;;;;;;;;;;;;16.70;63.77;99947.97;2079260;28;20391;-74
2022/12/20 04:30:31;;;;;;;;;;;;;;;16.70;64.10;99954.16;2079095;28;19987;-73
2022/12/20 04:31:32;;;;;;;;;;;;;;;16.67;63.88;99946.44;2082107;28;20057;-74
2022/12/20 04:32:35;;;;;;;;;;;;;;;16.68;63.80;99953.47;2079584;28;20081;-73
2022/12/20 04:33:35;;;;;;;;;;;;;;;16.66;63.91;99949.28;2080462;28;19924;-73
2022/12/20 04:34:37;;;;;;;;;;;;;;;16.67;63.88;99950.97;2080460;28;19928;-74
2022/12/20 04:35:37;;;;;;;;;;;;;;;16.67;63.93;99951.81;2081665;28;19925;-74
2022/12/20 04:36:39;;;;;;;;;;;;;;;16.65;63.90;99950.28;2081095;28;20340;-74
2022/12/20 04:37:39;;;;;;;;;;;;;;;16.63;64.05;99945.09;2082758;28;19950;-73
2022/12/20 04:38:41;;;;;;;;;;;;;;;16.64;63.95;99952.13;2082253;28;20035;-74
2022/12/20 04:39:42;;;;;;;;;;;;;;;16.63;63.86;99949.59;2084777;28;20390;-74
2022/12/20 04:40:43;;;;;;;;;;;;;;;16.64;63.91;99945.94;2084043;28;19931;-73
2022/12/20 04:41:44;;;;;;;;;;;;;;;16.63;63.98;99953.13;2082315;28;19924;-74
2022/12/20 04:42:45;;;;;;;;;;;;;;;16.63;63.88;99955.81;2083010;28;19924;-73
2022/12/20 04:43:46;;;;;;;;;;;;;;;16.62;63.95;99948.75;2082852;28;19939;-74
2022/12/20 04:44:47;;;;;;;;;;;;;;;16.63;63.89;99961.16;2082383;28;20294;-74
2022/12/20 04:45:49;;;;;;;;;;;;;;;16.64;63.90;99948.63;2082379;28;20015;-73
2022/12/20 04:46:50;;;;;;;;;;;;;;;16.62;63.91;99948.75;2081510;28;20023;-73
2022/12/20 04:47:52;;;;;;;;;;;;;;;16.60;64.00;99942.72;2082577;28;19977;-74
2022/12/20 04:48:54;;;;;;;;;;;;;;;16.58;64.02;99946.56;2081767;28;19935;-74
2022/12/20 04:49:54;;;;;;;;;;;;;;;16.59;63.97;99948.25;2078498;28;19928;-74
2022/12/20 04:50:56;;;;;;;;;;;;;;;16.63;63.97;99946.91;2080883;28;19979;-73
2022/12/20 04:53:46;;;;;;;;;;;;;;;16.66;63.78;99946.59;2080608;28;19936;-74
2022/12/20 04:54:39;;;;;;;;;;;;;;;16.84;63.37;99942.03;2074720;28;19925;-73
2022/12/20 04:55:39;;;;;;;;;;;;;;;16.88;63.14;99938.06;2080493;28;19920;-74
2022/12/20 04:56:41;;;;;;;;;;;;;;;16.96;63.02;99930.03;2080476;28;19924;-74
2022/12/20 04:57:41;;;;;;;;;;;;;;;17.00;63.07;99935.94;2080244;28;20573;-73
2022/12/20 04:58:43;;;;;;;;;;;;;;;17.06;62.96;99935.28;2080817;28;19980;-74
2022/12/20 04:59:43;;;;;;;;;;;;;;;17.11;62.89;99932.13;2077783;28;19937;-73
2022/12/20 05:00:45;;;;;;;;;;;;;;;17.19;62.70;99929.47;2080148;28;19924;-74
2022/12/20 05:01:46;;;;;;;;;;;;;;;17.24;62.48;99926.28;2080607;28;20039;-74
2022/12/20 05:02:47;;;;;;;;;;;;;;;17.27;62.71;99926.78;2080463;28;20545;-74
2022/12/20 05:03:50;;;;;;;;;;;;;;;17.28;62.54;99933.00;2080311;28;20012;-74
2022/12/20 05:04:50;;;;;;;;;;;;;;;17.33;62.46;99925.31;2080279;28;19921;-74
2022/12/20 05:05:52;;;;;;;;;;;;;;;17.38;62.62;99922.94;2081235;28;19924;-74
2022/12/20 05:06:53;;;;;;;;;;;;;;;17.39;62.58;99930.00;2080294;28;19936;-74
2022/12/20 05:07:54;;;;;;;;;;;;;;;17.42;62.54;99918.97;2081856;28;19935;-74
2022/12/20 05:08:56;;;;;;;;;;;;;;;17.43;62.51;99912.56;2082348;28;19924;-73
2022/12/20 05:09:56;;;;;;;;;;;;;;;17.46;62.60;99914.94;2080318;28;21284;-74
2022/12/20 05:10:58;;;;;;;;;;;;;;;17.50;62.67;99915.47;2073462;28;20055;-74
2022/12/20 05:11:58;;;;;;;;;;;;;;;17.53;62.61;99923.16;2082090;28;20895;-74
2022/12/20 05:13:00;;;;;;;;;;;;;;;17.54;62.34;99914.09;2081281;28;19921;-73
2022/12/20 05:14:01;;;;;;;;;;;;;;;17.57;62.57;99921.81;2081361;28;19924;-74
2022/12/20 05:15:02;;;;;;;;;;;;;;;17.58;62.64;99918.16;2082186;28;19931;-74
2022/12/20 05:16:03;;;;;;;;;;;;;;;17.62;62.46;99919.50;2080094;28;19978;-74
2022/12/20 05:17:04;;;;;;;;;;;;;;;17.63;62.49;99919.34;2082744;28;19924;-74
2022/12/20 05:18:05;;;;;;;;;;;;;;;17.68;62.41;99921.50;2083469;28;19921;-74
2022/12/20 05:19:07;;;;;;;;;;;;;;;17.70;62.46;99921.34;2080465;28;19924;-74
2022/12/20 05:20:09;;;;;;;;;;;;;;;17.71;62.28;99915.78;2082262;28;20263;-74
2022/12/20 05:26:30;;;;;;;;;;;;;;;17.87;62.42;99917.69;2080947;28;20405;-74
2022/12/20 05:27:30;;;;;;;;;;;;;;;17.89;62.32;99914.84;2083215;28;19921;-74
2022/12/20 05:28:32;;;;;;;;;;;;;;;17.91;62.35;99919.03;2081921;28;20382;-74
2022/12/20 05:29:34;;;;;;;;;;;;;;;17.95;62.28;99912.31;2082316;28;20011;-74
2022/12/20 05:30:34;;;;;;;;;;;;;;;17.95;62.27;99915.00;2082403;28;20001;-73
2022/12/20 05:31:36;;;;;;;;;;;;;;;17.98;62.13;99919.22;2081652;28;19928;-74